Time;durP1;ratioP1;P1;durP2;ratioP2;P2;SDS_P1;SDS_P2;PMS_P1;PMS_P2;Temp;Humidity;BMP_temperature;BMP_pressure;BME280_temperature;BME280_humidity;BME280_pressure;Samples;Min_cycle;Max_cycle;Signal;HPM_P1;HPM_P2
2024/01/02 00:00:41;;;;;;;;;;;17.70;44.40;;;;;;1586464;74;831;-60
2024/01/02 00:02:42;;;;;;;;;;;17.80;44.40;;;;;;1579790;73;739;-60
2024/01/02 00:04:44;;;;;;;;;;;17.80;44.40;;;;;;1591595;73;1941;-60
2024/01/02 00:06:49;;;;;;;;;;;17.80;44.40;;;;;;1584370;73;1360;-60
2024/01/02 00:08:51;;;;;;;;;;;17.80;44.40;;;;;;1587151;74;716;-60
2024/01/02 00:10:53;;;;;;;;;;;17.80;44.40;;;;;;1582010;74;720;-61
2024/01/02 00:12:58;;;;;;;;;;;17.80;44.40;;;;;;1586644;74;1155;-60
2024/01/02 00:15:00;;;;;;;;;;;17.80;44.40;;;;;;1580487;74;942;-60
2024/01/02 00:17:02;;;;;;;;;;;17.70;44.40;;;;;;1581043;73;755;-60
2024/01/02 00:19:04;;;;;;;;;;;17.80;44.40;;;;;;1579350;73;768;-60
2024/01/02 00:21:05;;;;;;;;;;;17.80;44.40;;;;;;1592036;74;1344;-63
2024/01/02 00:23:07;;;;;;;;;;;17.80;44.40;;;;;;1585426;73;1114;-60
2024/01/02 00:25:09;;;;;;;;;;;17.80;44.40;;;;;;1578053;73;1940;-60
2024/01/02 00:27:11;;;;;;;;;;;17.80;44.40;;;;;;1579189;74;710;-61
2024/01/02 00:29:13;;;;;;;;;;;17.80;44.40;;;;;;1588282;73;768;-60
2024/01/02 00:31:15;;;;;;;;;;;17.80;44.40;;;;;;1587426;74;735;-60
2024/01/02 00:33:17;;;;;;;;;;;17.90;44.60;;;;;;1586915;74;1144;-60
2024/01/02 00:35:19;;;;;;;;;;;17.80;44.40;;;;;;1584967;73;1517;-60
2024/01/02 00:37:21;;;;;;;;;;;17.80;44.40;;;;;;1589439;74;724;-62
2024/01/02 00:39:22;;;;;;;;;;;17.80;44.40;;;;;;1582872;73;710;-60
2024/01/02 00:41:24;;;;;;;;;;;17.80;44.40;;;;;;1583686;73;653;-60
2024/01/02 00:43:26;;;;;;;;;;;17.80;44.40;;;;;;1577996;73;1941;-60
2024/01/02 00:45:28;;;;;;;;;;;17.80;44.40;;;;;;1580760;74;798;-60
2024/01/02 00:47:30;;;;;;;;;;;17.80;44.40;;;;;;1584310;74;766;-60
2024/01/02 00:49:32;;;;;;;;;;;17.80;44.40;;;;;;1587026;73;1310;-60
2024/01/02 00:51:34;;;;;;;;;;;17.80;44.40;;;;;;1581447;74;685;-60
2024/01/02 00:53:36;;;;;;;;;;;17.80;44.40;;;;;;1586383;74;1187;-60
2024/01/02 00:55:38;;;;;;;;;;;17.80;44.40;;;;;;1589229;74;681;-60
2024/01/02 00:57:40;;;;;;;;;;;17.80;44.40;;;;;;1581359;73;737;-60
2024/01/02 00:59:42;;;;;;;;;;;17.80;44.40;;;;;;1578382;73;727;-59
2024/01/02 01:01:44;;;;;;;;;;;17.90;44.50;;;;;;1583289;73;801;-59
2024/01/02 01:03:46;;;;;;;;;;;17.80;44.40;;;;;;1579082;73;1963;-60
2024/01/02 01:05:48;;;;;;;;;;;17.90;44.50;;;;;;1587587;74;785;-60
2024/01/02 01:07:50;;;;;;;;;;;17.80;44.40;;;;;;1577908;74;787;-59
2024/01/02 01:09:51;;;;;;;;;;;17.90;44.60;;;;;;1583724;73;812;-60
2024/01/02 01:11:53;;;;;;;;;;;17.80;44.40;;;;;;1586386;73;735;-58
2024/01/02 01:13:55;;;;;;;;;;;17.80;44.40;;;;;;1585978;73;1110;-59
2024/01/02 01:15:57;;;;;;;;;;;17.70;44.40;;;;;;1582031;73;728;-60
2024/01/02 01:17:59;;;;;;;;;;;17.80;44.40;;;;;;1577641;73;1443;-59
2024/01/02 01:20:01;;;;;;;;;;;17.80;44.40;;;;;;1584819;73;814;-60
2024/01/02 01:22:03;;;;;;;;;;;18.20;44.70;;;;;;1588135;73;739;-60
2024/01/02 01:24:05;;;;;;;;;;;17.70;44.40;;;;;;1585517;73;1926;-60
2024/01/02 01:26:07;;;;;;;;;;;17.80;44.40;;;;;;1580135;74;758;-60
2024/01/02 01:28:09;;;;;;;;;;;17.80;44.40;;;;;;1580329;74;766;-61
2024/01/02 01:30:11;;;;;;;;;;;17.80;44.30;;;;;;1581550;74;1548;-58
2024/01/02 01:32:14;;;;;;;;;;;17.80;44.30;;;;;;1589091;73;665;-54
2024/01/02 01:34:16;;;;;;;;;;;17.80;44.30;;;;;;1587906;73;1148;-56
2024/01/02 01:36:18;;;;;;;;;;;17.70;44.40;;;;;;1580898;73;692;-58
2024/01/02 01:38:20;;;;;;;;;;;17.80;44.40;;;;;;1578303;74;733;-58
2024/01/02 01:40:22;;;;;;;;;;;17.70;44.40;;;;;;1580780;73;744;-58
2024/01/02 01:42:24;;;;;;;;;;;17.80;44.40;;;;;;1584082;74;801;-58
2024/01/02 01:44:26;;;;;;;;;;;17.80;44.40;;;;;;1579476;74;1949;-61
2024/01/02 01:46:29;;;;;;;;;;;17.80;44.40;;;;;;1577656;73;804;-60
2024/01/02 01:48:31;;;;;;;;;;;17.80;44.30;;;;;;1585265;73;1934;-60
2024/01/02 01:50:33;;;;;;;;;;;17.80;44.40;;;;;;1589540;74;690;-60
2024/01/02 01:52:35;;;;;;;;;;;17.80;44.40;;;;;;1581801;73;973;-59
2024/01/02 01:54:37;;;;;;;;;;;17.80;44.30;;;;;;1591462;73;1175;-59
2024/01/02 01:56:39;;;;;;;;;;;17.80;44.40;;;;;;1592916;73;793;-61
2024/01/02 01:58:40;;;;;;;;;;;17.80;44.40;;;;;;1600415;73;1224;-60
2024/01/02 02:00:43;;;;;;;;;;;17.70;44.40;;;;;;1599422;73;791;-60
2024/01/02 02:02:45;;;;;;;;;;;17.80;44.40;;;;;;1597183;73;1123;-59
2024/01/02 02:04:46;;;;;;;;;;;17.80;44.40;;;;;;1588727;73;1943;-60
2024/01/02 02:06:48;;;;;;;;;;;17.80;44.40;;;;;;1587966;73;790;-61
2024/01/02 02:08:51;;;;;;;;;;;17.70;44.40;;;;;;1592544;73;665;-59
2024/01/02 02:10:53;;;;;;;;;;;17.80;44.30;;;;;;1592645;73;705;-60
2024/01/02 02:12:55;;;;;;;;;;;17.70;44.30;;;;;;1595247;73;1560;-60
2024/01/02 02:14:57;;;;;;;;;;;17.80;44.30;;;;;;1590265;73;719;-60
2024/01/02 02:16:59;;;;;;;;;;;17.80;44.40;;;;;;1587434;73;728;-59
2024/01/02 02:19:01;;;;;;;;;;;17.80;44.30;;;;;;1591454;73;794;-60
2024/01/02 02:21:03;;;;;;;;;;;17.80;44.30;;;;;;1595616;73;751;-57
2024/01/02 02:23:04;;;;;;;;;;;17.80;44.30;;;;;;1594031;73;1100;-58
2024/01/02 02:25:07;;;;;;;;;;;17.80;44.30;;;;;;1589821;73;1941;-54
2024/01/02 02:27:09;;;;;;;;;;;17.80;44.30;;;;;;1593264;73;1523;-58
2024/01/02 02:29:11;;;;;;;;;;;17.80;44.30;;;;;;1598419;73;685;-58
2024/01/02 02:31:13;;;;;;;;;;;17.80;44.30;;;;;;1594681;73;744;-60
2024/01/02 02:33:15;;;;;;;;;;;17.80;44.30;;;;;;1603784;73;1141;-60
2024/01/02 02:35:17;;;;;;;;;;;17.80;44.30;;;;;;1594262;73;729;-59
2024/01/02 02:37:19;;;;;;;;;;;17.70;44.30;;;;;;1597109;73;771;-61
2024/01/02 02:39:21;;;;;;;;;;;17.80;44.30;;;;;;1590732;73;763;-59
2024/01/02 02:41:22;;;;;;;;;;;17.80;44.30;;;;;;1595340;73;1504;-59
2024/01/02 02:43:24;;;;;;;;;;;17.80;44.30;;;;;;1588700;73;1185;-59
2024/01/02 02:45:27;;;;;;;;;;;17.80;44.30;;;;;;1591841;73;1933;-60
2024/01/02 02:47:29;;;;;;;;;;;17.70;44.30;;;;;;1590917;73;728;-56
2024/01/02 02:49:32;;;;;;;;;;;17.80;44.30;;;;;;1592080;73;752;-60
2024/01/02 02:51:34;;;;;;;;;;;17.80;44.30;;;;;;1592552;73;732;-60
2024/01/02 02:53:36;;;;;;;;;;;17.70;44.30;;;;;;1584404;73;1143;-59
2024/01/02 02:55:38;;;;;;;;;;;17.80;44.30;;;;;;1579605;73;1497;-60
2024/01/02 02:57:40;;;;;;;;;;;17.80;44.30;;;;;;1582695;74;654;-59
2024/01/02 02:59:42;;;;;;;;;;;17.70;44.30;;;;;;1588712;73;718;-57
2024/01/02 03:01:44;;;;;;;;;;;17.80;44.30;;;;;;1587276;74;735;-57
2024/01/02 03:03:45;;;;;;;;;;;17.80;44.30;;;;;;1583922;74;1128;-60
2024/01/02 03:05:47;;;;;;;;;;;17.80;44.30;;;;;;1587440;73;1936;-59
2024/01/02 03:07:49;;;;;;;;;;;17.80;44.30;;;;;;1583933;74;864;-57
2024/01/02 03:09:51;;;;;;;;;;;17.80;44.30;;;;;;1582988;74;1575;-60
2024/01/02 03:11:53;;;;;;;;;;;17.80;44.20;;;;;;1580870;73;814;-59
2024/01/02 03:13:55;;;;;;;;;;;17.70;44.20;;;;;;1577051;73;1128;-59
2024/01/02 03:15:57;;;;;;;;;;;17.80;44.30;;;;;;1579636;74;775;-58
2024/01/02 03:17:59;;;;;;;;;;;17.80;44.30;;;;;;1577663;74;798;-59
2024/01/02 03:20:02;;;;;;;;;;;17.80;44.20;;;;;;1581988;74;790;-57
2024/01/02 03:22:04;;;;;;;;;;;17.80;44.30;;;;;;1592545;73;753;-60
2024/01/02 03:24:06;;;;;;;;;;;17.80;44.30;;;;;;1583635;73;1590;-60
2024/01/02 03:26:11;;;;;;;;;;;17.80;44.20;;;;;;1583040;73;1927;-57
2024/01/02 03:28:13;;;;;;;;;;;17.70;44.30;;;;;;1583782;74;729;-58
2024/01/02 03:30:15;;;;;;;;;;;17.80;44.30;;;;;;1590486;73;725;-59
2024/01/02 03:32:17;;;;;;;;;;;17.80;44.30;;;;;;1590096;74;707;-59
2024/01/02 03:34:19;;;;;;;;;;;17.80;44.30;;;;;;1578582;73;1132;-59
2024/01/02 03:36:21;;;;;;;;;;;17.80;44.20;;;;;;1578775;74;728;-60
2024/01/02 03:38:23;;;;;;;;;;;17.80;44.20;;;;;;1582232;74;1509;-59
2024/01/02 03:40:25;;;;;;;;;;;17.80;44.30;;;;;;1584605;74;731;-59
2024/01/02 03:42:27;;;;;;;;;;;17.70;44.30;;;;;;1578802;73;779;-60
2024/01/02 03:44:28;;;;;;;;;;;17.80;44.30;;;;;;1586565;73;1944;-58
2024/01/02 03:46:30;;;;;;;;;;;17.80;44.20;;;;;;1578785;73;770;-60
2024/01/02 03:48:32;;;;;;;;;;;17.70;44.30;;;;;;1584375;74;767;-59
2024/01/02 03:50:34;;;;;;;;;;;17.80;44.20;;;;;;1586558;74;740;-60
2024/01/02 03:52:36;;;;;;;;;;;17.80;44.30;;;;;;1582413;74;1527;-58
2024/01/02 03:54:38;;;;;;;;;;;17.80;44.20;;;;;;1584262;74;1117;-59
2024/01/02 03:56:40;;;;;;;;;;;17.80;44.20;;;;;;1585792;74;712;-58
2024/01/02 03:58:42;;;;;;;;;;;17.70;44.30;;;;;;1593171;73;741;-57
2024/01/02 04:00:43;;;;;;;;;;;17.70;44.20;;;;;;1582694;73;810;-56
2024/01/02 04:02:45;;;;;;;;;;;17.80;44.20;;;;;;1588240;74;1187;-59
2024/01/02 04:04:47;;;;;;;;;;;17.80;44.20;;;;;;1585755;73;1921;-60
2024/01/02 04:06:49;;;;;;;;;;;17.70;44.20;;;;;;1588947;73;868;-55
2024/01/02 04:08:51;;;;;;;;;;;18.20;44.50;;;;;;1577150;74;696;-60
2024/01/02 04:10:53;;;;;;;;;;;17.80;44.30;;;;;;1586880;74;706;-58
2024/01/02 04:12:55;;;;;;;;;;;17.80;44.20;;;;;;1586876;73;1181;-56
2024/01/02 04:14:57;;;;;;;;;;;17.80;44.20;;;;;;1588628;74;791;-57
2024/01/02 04:16:59;;;;;;;;;;;17.70;44.20;;;;;;1586732;74;748;-60
2024/01/02 04:19:00;;;;;;;;;;;17.80;44.20;;;;;;1583013;73;1543;-60
2024/01/02 04:21:02;;;;;;;;;;;17.80;44.30;;;;;;1584461;74;753;-60
2024/01/02 04:23:04;;;;;;;;;;;17.80;44.30;;;;;;1580485;74;1153;-58
2024/01/02 04:25:07;;;;;;;;;;;17.80;44.30;;;;;;1579533;73;1933;-59
2024/01/02 04:27:09;;;;;;;;;;;17.80;44.30;;;;;;1578343;74;756;-61
2024/01/02 04:29:10;;;;;;;;;;;17.70;44.20;;;;;;1579715;74;958;-59
2024/01/02 04:31:12;;;;;;;;;;;17.80;44.20;;;;;;1589811;73;718;-59
2024/01/02 04:33:14;;;;;;;;;;;17.70;44.30;;;;;;1577916;73;1403;-58
2024/01/02 04:35:16;;;;;;;;;;;17.80;44.30;;;;;;1584773;73;712;-59
2024/01/02 04:37:18;;;;;;;;;;;17.80;44.30;;;;;;1582593;73;667;-60
2024/01/02 04:39:20;;;;;;;;;;;17.80;44.20;;;;;;1582658;73;748;-60
2024/01/02 04:41:22;;;;;;;;;;;17.70;44.20;;;;;;1584715;73;717;-60
2024/01/02 04:43:24;;;;;;;;;;;17.70;44.20;;;;;;1580243;74;1170;-58
2024/01/02 04:45:26;;;;;;;;;;;17.70;44.20;;;;;;1579001;74;1906;-59
2024/01/02 04:47:28;;;;;;;;;;;17.80;44.30;;;;;;1588785;74;1517;-58
2024/01/02 04:49:30;;;;;;;;;;;17.80;44.20;;;;;;1584271;74;679;-60
2024/01/02 04:51:32;;;;;;;;;;;17.70;44.20;;;;;;1581733;74;731;-55
2024/01/02 04:53:34;;;;;;;;;;;17.80;44.20;;;;;;1582306;74;1061;-59
2024/01/02 04:55:36;;;;;;;;;;;17.70;44.20;;;;;;1580073;74;1071;-58
2024/01/02 04:57:38;;;;;;;;;;;17.80;44.20;;;;;;1579981;73;687;-56
2024/01/02 04:59:40;;;;;;;;;;;17.80;44.20;;;;;;1588470;74;742;-59
2024/01/02 05:01:42;;;;;;;;;;;17.70;44.30;;;;;;1590189;74;1516;-57
2024/01/02 05:03:44;;;;;;;;;;;17.70;44.20;;;;;;1578908;73;1176;-59
2024/01/02 05:05:46;;;;;;;;;;;17.70;44.20;;;;;;1578360;74;1907;-60
2024/01/02 05:07:48;;;;;;;;;;;17.80;44.20;;;;;;1586645;73;728;-60
2024/01/02 05:09:51;;;;;;;;;;;17.80;44.20;;;;;;1581686;74;741;-60
2024/01/02 05:11:53;;;;;;;;;;;17.70;44.20;;;;;;1577377;73;753;-60
2024/01/02 05:13:55;;;;;;;;;;;17.80;44.20;;;;;;1580535;74;1127;-60
2024/01/02 05:15:56;;;;;;;;;;;17.70;44.30;;;;;;1582538;74;1569;-60
2024/01/02 05:17:58;;;;;;;;;;;17.70;44.20;;;;;;1588539;74;637;-60
2024/01/02 05:20:00;;;;;;;;;;;17.80;44.20;;;;;;1590315;74;756;-60
2024/01/02 05:22:03;;;;;;;;;;;17.80;44.20;;;;;;1583467;74;761;-60
2024/01/02 05:24:05;;;;;;;;;;;17.80;44.20;;;;;;1576879;74;1115;-60
2024/01/02 05:26:07;;;;;;;;;;;17.80;44.20;;;;;;1581891;74;1942;-61
2024/01/02 05:28:09;;;;;;;;;;;17.70;44.20;;;;;;1579554;74;816;-59
2024/01/02 05:30:11;;;;;;;;;;;17.80;44.20;;;;;;1588150;74;1563;-58
2024/01/02 05:32:13;;;;;;;;;;;17.80;44.20;;;;;;1584119;74;737;-59
2024/01/02 05:34:15;;;;;;;;;;;17.80;44.20;;;;;;1577588;74;1136;-60
2024/01/02 05:36:17;;;;;;;;;;;17.70;44.30;;;;;;1582244;73;831;-58
2024/01/02 05:38:18;;;;;;;;;;;17.70;44.20;;;;;;1580488;74;775;-60
2024/01/02 05:40:20;;;;;;;;;;;17.70;44.20;;;;;;1582969;73;725;-61
2024/01/02 05:42:22;;;;;;;;;;;17.80;44.20;;;;;;1578181;74;672;-60
2024/01/02 05:44:24;;;;;;;;;;;17.80;44.20;;;;;;1577525;74;1582;-59
2024/01/02 05:46:26;;;;;;;;;;;17.70;44.20;;;;;;1577474;74;1934;-60
2024/01/02 05:48:28;;;;;;;;;;;17.80;44.20;;;;;;1590176;74;748;-60
2024/01/02 05:50:30;;;;;;;;;;;17.70;44.20;;;;;;1580281;73;738;-60
2024/01/02 05:52:32;;;;;;;;;;;17.80;44.20;;;;;;1588046;73;715;-60
2024/01/02 05:54:33;;;;;;;;;;;17.80;44.20;;;;;;1583424;73;1144;-60
2024/01/02 05:56:35;;;;;;;;;;;17.80;44.20;;;;;;1570530;74;725;-60
2024/01/02 05:58:37;;;;;;;;;;;17.80;44.20;;;;;;1599117;73;1352;-59
2024/01/02 06:00:39;;;;;;;;;;;17.80;44.20;;;;;;1597189;73;691;-60
2024/01/02 06:02:41;;;;;;;;;;;17.70;44.20;;;;;;1601036;73;859;-60
2024/01/02 06:04:43;;;;;;;;;;;17.80;44.30;;;;;;1599196;73;1219;-59
2024/01/02 06:06:45;;;;;;;;;;;17.70;44.20;;;;;;1598323;73;1934;-60
2024/01/02 06:08:47;;;;;;;;;;;17.70;44.20;;;;;;1598703;73;789;-60
2024/01/02 06:10:48;;;;;;;;;;;17.70;44.20;;;;;;1599180;73;751;-60
2024/01/02 06:12:50;;;;;;;;;;;17.80;44.20;;;;;;1607540;73;1515;-60
2024/01/02 06:14:52;;;;;;;;;;;17.70;44.20;;;;;;1598778;73;686;-60
2024/01/02 06:16:54;;;;;;;;;;;17.80;44.20;;;;;;1602529;73;745;-60
2024/01/02 06:18:56;;;;;;;;;;;17.70;44.20;;;;;;1601339;73;701;-60
2024/01/02 06:20:58;;;;;;;;;;;17.80;44.20;;;;;;1606925;73;792;-61
2024/01/02 06:23:00;;;;;;;;;;;17.70;44.20;;;;;;1602360;73;1150;-60
2024/01/02 06:25:01;;;;;;;;;;;17.80;44.20;;;;;;1595820;73;781;-59
2024/01/02 06:27:03;;;;;;;;;;;17.70;44.20;;;;;;1600280;73;1935;-60
2024/01/02 06:29:05;;;;;;;;;;;17.80;44.20;;;;;;1601192;73;759;-60
2024/01/02 06:31:07;;;;;;;;;;;17.70;44.20;;;;;;1602091;73;602;-60
2024/01/02 06:33:09;;;;;;;;;;;17.80;44.20;;;;;;1612297;73;1119;-60
2024/01/02 06:35:12;;;;;;;;;;;17.70;44.20;;;;;;1601114;73;664;-61
2024/01/02 06:37:14;;;;;;;;;;;17.80;44.20;;;;;;1595529;73;803;-60
2024/01/02 06:39:16;;;;;;;;;;;17.70;44.20;;;;;;1608270;73;742;-60
2024/01/02 06:41:18;;;;;;;;;;;17.70;44.20;;;;;;1598001;73;1671;-60
2024/01/02 06:43:19;;;;;;;;;;;17.80;44.20;;;;;;1595539;73;1174;-60
2024/01/02 06:45:21;;;;;;;;;;;17.80;44.20;;;;;;1597264;73;746;-61
2024/01/02 06:47:23;;;;;;;;;;;17.70;44.20;;;;;;1607415;73;1920;-58
2024/01/02 06:49:26;;;;;;;;;;;17.80;44.20;;;;;;1601161;73;706;-58
2024/01/02 06:51:29;;;;;;;;;;;17.70;44.20;;;;;;1600406;73;765;-58
2024/01/02 06:53:31;;;;;;;;;;;17.80;44.20;;;;;;1602990;73;1155;-59
2024/01/02 06:55:33;;;;;;;;;;;17.70;44.10;;;;;;1596365;73;1693;-60
2024/01/02 06:57:35;;;;;;;;;;;17.80;44.20;;;;;;1581714;73;675;-58
2024/01/02 06:59:37;;;;;;;;;;;17.80;44.20;;;;;;1586928;74;717;-60
2024/01/02 07:01:39;;;;;;;;;;;17.80;44.20;;;;;;1581880;74;826;-60
2024/01/02 07:03:41;;;;;;;;;;;17.70;44.20;;;;;;1578127;73;1206;-59
2024/01/02 07:05:43;;;;;;;;;;;17.70;44.20;;;;;;1586463;74;1933;-60
2024/01/02 07:07:44;;;;;;;;;;;17.80;44.20;;;;;;1589754;74;1278;-61
2024/01/02 07:09:46;;;;;;;;;;;17.80;44.10;;;;;;1579579;73;673;-59
2024/01/02 07:11:48;;;;;;;;;;;17.80;44.20;;;;;;1579454;73;795;-60
2024/01/02 07:13:50;;;;;;;;;;;17.80;44.20;;;;;;1589765;73;1139;-60
2024/01/02 07:15:52;;;;;;;;;;;17.70;44.20;;;;;;1579497;74;690;-59
2024/01/02 07:17:54;;;;;;;;;;;17.80;44.20;;;;;;1587870;73;769;-59
2024/01/02 07:19:56;;;;;;;;;;;17.70;44.20;;;;;;1581962;73;772;-60
2024/01/02 07:21:58;;;;;;;;;;;17.70;44.20;;;;;;1580143;73;1170;-60
2024/01/02 07:24:00;;;;;;;;;;;17.80;44.20;;;;;;1586248;74;1121;-60
2024/01/02 07:26:02;;;;;;;;;;;17.80;44.20;;;;;;1582493;73;1915;-60
2024/01/02 07:28:04;;;;;;;;;;;17.80;44.10;;;;;;1586780;74;805;-59
2024/01/02 07:30:07;;;;;;;;;;;17.70;44.10;;;;;;1583678;73;743;-61
2024/01/02 07:32:10;;;;;;;;;;;17.70;44.20;;;;;;1586201;74;689;-60
2024/01/02 07:34:13;;;;;;;;;;;17.70;44.10;;;;;;1582865;74;1158;-59
2024/01/02 07:36:17;;;;;;;;;;;17.60;44.10;;;;;;1583544;73;1522;-60
2024/01/02 07:38:18;;;;;;;;;;;17.80;44.20;;;;;;1588753;74;1610;-58
2024/01/02 07:40:20;;;;;;;;;;;17.80;44.20;;;;;;1577770;74;967;-58
2024/01/02 07:42:22;;;;;;;;;;;17.70;44.10;;;;;;1583486;73;739;-59
2024/01/02 07:44:24;;;;;;;;;;;17.80;44.10;;;;;;1587113;74;1176;-59
2024/01/02 07:46:27;;;;;;;;;;;17.80;44.20;;;;;;1586134;73;1941;-58
2024/01/02 07:48:29;;;;;;;;;;;17.80;44.20;;;;;;1587837;74;744;-59
2024/01/02 07:50:31;;;;;;;;;;;17.70;44.10;;;;;;1587206;73;1481;-59
2024/01/02 07:52:33;;;;;;;;;;;17.70;44.20;;;;;;1582066;74;778;-58
2024/01/02 07:54:38;;;;;;;;;;;17.70;44.10;;;;;;1589056;73;1109;-60
2024/01/02 07:56:40;;;;;;;;;;;17.70;44.20;;;;;;1590909;73;1074;-59
2024/01/02 07:58:42;;;;;;;;;;;17.70;44.10;;;;;;1590057;73;738;-59
2024/01/02 08:00:44;;;;;;;;;;;17.70;44.10;;;;;;1592344;73;727;-59
2024/01/02 08:02:46;;;;;;;;;;;17.80;44.10;;;;;;1593110;73;1168;-60
2024/01/02 08:04:48;;;;;;;;;;;17.80;44.10;;;;;;1605454;73;1295;-60
2024/01/02 08:06:50;;;;;;;;;;;17.80;44.10;;;;;;1594042;73;1914;-60
2024/01/02 08:08:52;;;;;;;;;;;17.70;44.10;;;;;;1600777;73;714;-60
2024/01/02 08:10:54;;;;;;;;;;;17.80;44.20;;;;;;1589162;73;782;-59
2024/01/02 08:12:56;;;;;;;;;;;17.80;44.20;;;;;;1593133;73;1093;-60
2024/01/02 08:14:58;;;;;;;;;;;17.70;44.20;;;;;;1591598;73;704;-60
2024/01/02 08:17:00;;;;;;;;;;;17.80;44.20;;;;;;1596986;73;743;-57
2024/01/02 08:19:04;;;;;;;;;;;17.80;44.10;;;;;;1592029;73;1569;-60
2024/01/02 08:21:05;;;;;;;;;;;17.70;44.10;;;;;;1595953;73;2731;-60
2024/01/02 08:23:07;;;;;;;;;;;17.80;44.20;;;;;;1593081;73;1140;-56
2024/01/02 08:25:09;;;;;;;;;;;17.80;44.10;;;;;;1587857;73;792;-60
2024/01/02 08:27:11;;;;;;;;;;;17.80;44.10;;;;;;1589740;73;1941;-59
2024/01/02 08:29:13;;;;;;;;;;;17.70;44.10;;;;;;1592432;73;778;-58
2024/01/02 08:31:15;;;;;;;;;;;17.70;44.10;;;;;;1591505;73;729;-59
2024/01/02 08:33:17;;;;;;;;;;;17.80;44.10;;;;;;1598593;73;1558;-59
2024/01/02 08:35:19;;;;;;;;;;;17.70;44.10;;;;;;1599923;73;718;-60
2024/01/02 08:37:20;;;;;;;;;;;17.80;44.10;;;;;;1590889;73;787;-59
2024/01/02 08:39:22;;;;;;;;;;;17.80;44.00;;;;;;1590073;73;809;-61
2024/01/02 08:41:24;;;;;;;;;;;17.70;44.10;;;;;;1594871;73;730;-59
2024/01/02 08:43:27;;;;;;;;;;;17.80;44.10;;;;;;1587658;73;1201;-58
2024/01/02 08:45:29;;;;;;;;;;;17.70;44.10;;;;;;1593160;73;737;-55
2024/01/02 08:47:31;;;;;;;;;;;17.70;44.00;;;;;;1596951;73;1933;-59
2024/01/02 08:49:33;;;;;;;;;;;17.80;44.10;;;;;;1589109;73;770;-59
2024/01/02 08:51:35;;;;;;;;;;;17.70;44.10;;;;;;1595592;73;574;-57
2024/01/02 08:53:37;;;;;;;;;;;17.70;44.00;;;;;;1597956;73;1169;-57
2024/01/02 08:55:39;;;;;;;;;;;17.70;44.00;;;;;;1592274;73;765;-59
2024/01/02 08:57:41;;;;;;;;;;;17.80;44.00;;;;;;1587675;73;1086;-59
2024/01/02 08:59:43;;;;;;;;;;;17.70;44.00;;;;;;1579318;74;666;-57
2024/01/02 09:01:46;;;;;;;;;;;17.80;44.00;;;;;;1579362;74;1343;-60
2024/01/02 09:03:48;;;;;;;;;;;17.80;44.00;;;;;;1576777;73;1143;-60
2024/01/02 09:05:50;;;;;;;;;;;17.70;44.00;;;;;;1589650;74;794;-60
2024/01/02 09:07:52;;;;;;;;;;;17.70;44.00;;;;;;1591316;74;1918;-60
2024/01/02 09:09:54;;;;;;;;;;;17.80;44.00;;;;;;1582675;74;692;-60
2024/01/02 09:11:56;;;;;;;;;;;17.80;44.00;;;;;;1582551;74;786;-60
2024/01/02 09:13:58;;;;;;;;;;;17.80;44.00;;;;;;1579376;74;1119;-60
2024/01/02 09:16:00;;;;;;;;;;;17.70;43.90;;;;;;1582112;73;1289;-59
2024/01/02 09:18:02;;;;;;;;;;;17.80;44.00;;;;;;1585851;73;737;-60
2024/01/02 09:20:08;;;;;;;;;;;17.70;44.00;;;;;;1587300;74;802;-61
2024/01/02 09:22:10;;;;;;;;;;;17.80;44.00;;;;;;1590531;73;1002;-60
2024/01/02 09:24:12;;;;;;;;;;;17.70;44.00;;;;;;1577282;73;1101;-61
2024/01/02 09:26:14;;;;;;;;;;;17.80;44.00;;;;;;1582296;74;909;-62
2024/01/02 09:28:16;;;;;;;;;;;17.80;44.00;;;;;;1587691;74;1914;-60
2024/01/02 09:30:18;;;;;;;;;;;17.70;43.90;;;;;;1580359;73;730;-60
2024/01/02 09:32:20;;;;;;;;;;;17.80;43.90;;;;;;1583863;74;740;-60
2024/01/02 09:34:22;;;;;;;;;;;17.70;44.00;;;;;;1588505;74;1111;-60
2024/01/02 09:36:24;;;;;;;;;;;17.70;43.90;;;;;;1586916;73;800;-60
2024/01/02 09:38:26;;;;;;;;;;;17.70;44.00;;;;;;1579396;73;647;-59
2024/01/02 09:40:35;;;;;;;;;;;17.70;43.90;;;;;;1582895;73;772;-61
2024/01/02 09:42:48;;;;;;;;;;;17.80;43.90;;;;;;1581803;73;1714;-60
2024/01/02 09:44:52;;;;;;;;;;;17.70;44.00;;;;;;1580011;74;2079;-60
2024/01/02 09:47:08;;;;;;;;;;;17.70;43.90;;;;;;1577421;73;1933;-60
2024/01/02 09:49:20;;;;;;;;;;;17.80;43.90;;;;;;1586994;73;1725;-60
2024/01/02 09:51:24;;;;;;;;;;;17.80;43.90;;;;;;1580161;74;1449;-59
2024/01/02 09:53:45;;;;;;;;;;;17.70;43.90;;;;;;1587233;73;1115;-60
2024/01/02 09:55:58;;;;;;;;;;;17.80;43.90;;;;;;1577731;73;689;-60
2024/01/02 09:58:05;;;;;;;;;;;17.80;43.90;;;;;;1580773;73;1707;-60
2024/01/02 10:00:12;;;;;;;;;;;17.70;43.90;;;;;;1596193;73;731;-60
2024/01/02 10:02:21;;;;;;;;;;;17.80;43.90;;;;;;1608142;73;1408;-60
2024/01/02 10:04:30;;;;;;;;;;;17.80;43.90;;;;;;1596360;73;2171;-60
2024/01/02 10:06:36;;;;;;;;;;;17.70;43.90;;;;;;1598642;73;1662;-60
2024/01/02 10:08:42;;;;;;;;;;;17.80;43.90;;;;;;1600715;73;1950;-60
2024/01/02 10:10:46;;;;;;;;;;;17.70;43.90;;;;;;1597242;73;1852;-60
2024/01/02 10:12:59;;;;;;;;;;;17.80;43.90;;;;;;1608612;73;1103;-60
2024/01/02 10:15:15;;;;;;;;;;;17.70;43.90;;;;;;1592272;73;1872;-59
2024/01/02 10:17:18;;;;;;;;;;;17.70;43.90;;;;;;1599302;73;770;-60
2024/01/02 10:19:25;;;;;;;;;;;17.80;43.90;;;;;;1599350;73;995;-60
2024/01/02 10:21:31;;;;;;;;;;;17.80;43.90;;;;;;1606399;73;781;-61
2024/01/02 10:23:35;;;;;;;;;;;17.70;43.90;;;;;;1574541;73;1135;-62
2024/01/02 10:25:37;;;;;;;;;;;17.80;43.90;;;;;;1600189;73;1933;-59
2024/01/02 10:27:56;;;;;;;;;;;17.80;43.80;;;;;;1598133;73;1938;-60
2024/01/02 10:30:09;;;;;;;;;;;17.70;43.90;;;;;;1599822;73;607;-60
2024/01/02 10:32:10;;;;;;;;;;;17.70;43.90;;;;;;1601625;73;1270;-60
2024/01/02 10:34:26;;;;;;;;;;;17.80;43.80;;;;;;1605732;73;1126;-60
2024/01/02 10:36:28;;;;;;;;;;;17.80;43.90;;;;;;1596070;73;696;-60
2024/01/02 10:38:34;;;;;;;;;;;17.80;43.90;;;;;;1595403;73;679;-60
2024/01/02 10:40:43;;;;;;;;;;;17.80;43.90;;;;;;1608841;73;734;-60
2024/01/02 10:42:47;;;;;;;;;;;17.80;43.90;;;;;;1598618;73;1127;-60
2024/01/02 10:44:50;;;;;;;;;;;17.70;43.90;;;;;;1599661;73;787;-60
2024/01/02 10:46:56;;;;;;;;;;;17.70;43.90;;;;;;1602547;73;1858;-60
2024/01/02 10:49:18;;;;;;;;;;;17.80;43.90;;;;;;1599459;73;645;-61
2024/01/02 10:51:23;;;;;;;;;;;17.70;43.90;;;;;;1597065;73;1477;-61
2024/01/02 10:53:44;;;;;;;;;;;17.80;43.90;;;;;;1600722;73;1594;-59
2024/01/02 10:55:49;;;;;;;;;;;17.80;43.90;;;;;;1602916;73;740;-58
2024/01/02 10:58:06;;;;;;;;;;;17.80;43.90;;;;;;1596968;73;1087;-61
2024/01/02 11:00:10;;;;;;;;;;;17.70;43.90;;;;;;1590647;73;1818;-59
2024/01/02 11:02:14;;;;;;;;;;;17.80;43.80;;;;;;1589082;73;718;-61
2024/01/02 11:04:35;;;;;;;;;;;17.80;43.90;;;;;;1588949;73;2051;-60
2024/01/02 11:06:39;;;;;;;;;;;17.80;43.80;;;;;;1594001;73;1076;-59
2024/01/02 11:08:42;;;;;;;;;;;17.70;43.90;;;;;;1587090;73;1941;-59
2024/01/02 11:10:48;;;;;;;;;;;17.80;43.90;;;;;;1590071;73;1765;-60
2024/01/02 11:12:52;;;;;;;;;;;17.80;43.90;;;;;;1600701;73;1139;-60
2024/01/02 11:14:54;;;;;;;;;;;17.70;43.80;;;;;;1595430;73;1751;-59
2024/01/02 11:16:56;;;;;;;;;;;17.80;43.80;;;;;;1589808;73;679;-60
2024/01/02 11:18:58;;;;;;;;;;;17.70;43.90;;;;;;1539574;75;690;-60
2024/01/02 11:21:02;;;;;;;;;;;17.80;43.80;;;;;;1530300;76;1553;-60
2024/01/02 11:23:08;;;;;;;;;;;17.80;43.80;;;;;;1539151;76;1104;-59
2024/01/02 11:25:10;;;;;;;;;;;17.80;43.70;;;;;;1559383;74;735;-59
2024/01/02 11:27:12;;;;;;;;;;;17.70;43.80;;;;;;1555693;74;1931;-60
2024/01/02 11:29:16;;;;;;;;;;;17.80;43.80;;;;;;1564937;75;747;-60
2024/01/02 11:31:18;;;;;;;;;;;17.80;43.80;;;;;;1566868;74;1352;-60
2024/01/02 11:33:21;;;;;;;;;;;17.80;43.80;;;;;;1558608;74;1144;-60
2024/01/02 11:35:24;;;;;;;;;;;17.70;43.80;;;;;;1551197;75;1562;-61
2024/01/02 11:37:30;;;;;;;;;;;17.70;43.80;;;;;;1566055;74;713;-60
2024/01/02 11:39:40;;;;;;;;;;;17.70;43.80;;;;;;1528932;76;1913;-59
2024/01/02 11:41:46;;;;;;;;;;;17.80;43.70;;;;;;1522397;74;1006;-59
2024/01/02 11:43:55;;;;;;;;;;;17.70;43.80;;;;;;1552698;75;1142;-60
2024/01/02 11:45:58;;;;;;;;;;;17.80;43.80;;;;;;1574462;74;728;-59
2024/01/02 11:48:13;;;;;;;;;;;17.70;43.90;;;;;;1579055;74;1937;-60
2024/01/02 11:50:15;;;;;;;;;;;17.70;43.80;;;;;;1570924;74;1345;-59
2024/01/02 11:52:18;;;;;;;;;;;17.80;43.80;;;;;;1570012;74;791;-58
2024/01/02 11:54:22;;;;;;;;;;;17.80;43.80;;;;;;1576227;74;1146;-60
2024/01/02 11:56:24;;;;;;;;;;;17.70;43.90;;;;;;1567445;74;805;-57
2024/01/02 11:58:29;;;;;;;;;;;17.70;43.80;;;;;;1568901;74;1104;-60
2024/01/02 12:00:35;;;;;;;;;;;17.80;43.90;;;;;;1573838;74;779;-59
2024/01/02 12:02:54;;;;;;;;;;;17.80;43.80;;;;;;1571261;74;1868;-59
2024/01/02 12:05:16;;;;;;;;;;;17.80;43.80;;;;;;1573313;74;2017;-57
2024/01/02 12:07:25;;;;;;;;;;;17.70;43.80;;;;;;1572583;74;770;-59
2024/01/02 12:09:28;;;;;;;;;;;17.80;43.80;;;;;;1567549;74;1662;-60
2024/01/02 12:11:30;;;;;;;;;;;17.70;43.80;;;;;;1569212;74;742;-58